sensor_id;sensor_type;location;lat;lon;timestamp;P1;P4;P2;P0;N10;N4;N25;N1;N05;TS
42106;SPS30;27764;50.278;19.032;2022-10-16T04:34:25;12;;12;;;;;;;
42106;SPS30;27764;50.278;19.032;2022-10-16T04:37:28;10;;10;;;;;;;
42106;SPS30;27764;50.278;19.032;2022-10-16T04:40:32;9;;9;;;;;;;
42106;SPS30;27764;50.278;19.032;2022-10-16T04:43:37;9;;9;;;;;;;
42106;SPS30;27764;50.278;19.032;2022-10-16T04:46:41;10;;10;;;;;;;
42106;SPS30;27764;50.278;19.032;2022-10-16T04:49:44;11;;11;;;;;;;
42106;SPS30;27764;50.278;19.032;2022-10-16T04:52:47;10;;10;;;;;;;
42106;SPS30;27764;50.278;19.032;2022-10-16T04:55:51;9;;9;;;;;;;
42106;SPS30;27764;50.278;19.032;2022-10-16T04:59:32;12;;12;;;;;;;
42106;SPS30;27764;50.278;19.032;2022-10-16T05:02:36;12;;12;;;;;;;
42106;SPS30;27764;50.278;19.032;2022-10-16T05:05:42;11;;11;;;;;;;
42106;SPS30;27764;50.278;19.032;2022-10-16T05:08:47;12;;12;;;;;;;
42106;SPS30;27764;50.278;19.032;2022-10-16T05:11:50;10;;10;;;;;;;
42106;SPS30;27764;50.278;19.032;2022-10-16T05:14:54;10;;10;;;;;;;
42106;SPS30;27764;50.278;19.032;2022-10-16T05:18:01;12;;12;;;;;;;
42106;SPS30;27764;50.278;19.032;2022-10-16T05:21:04;13;;13;;;;;;;
42106;SPS30;27764;50.278;19.032;2022-10-16T05:24:40;13;;13;;;;;;;
42106;SPS30;27764;50.278;19.032;2022-10-16T05:27:46;12;;12;;;;;;;
42106;SPS30;27764;50.278;19.032;2022-10-16T05:30:51;13;;13;;;;;;;
42106;SPS30;27764;50.278;19.032;2022-10-16T05:33:58;14;;14;;;;;;;
42106;SPS30;27764;50.278;19.032;2022-10-16T05:37:02;13;;13;;;;;;;
42106;SPS30;27764;50.278;19.032;2022-10-16T05:40:06;15;;15;;;;;;;
42106;SPS30;27764;50.278;19.032;2022-10-16T05:43:10;14;;14;;;;;;;
42106;SPS30;27764;50.278;19.032;2022-10-16T05:46:47;15;;15;;;;;;;
42106;SPS30;27764;50.278;19.032;2022-10-16T05:49:50;16;;16;;;;;;;
42106;SPS30;27764;50.278;19.032;2022-10-16T05:52:54;16;;16;;;;;;;
42106;SPS30;27764;50.278;19.032;2022-10-16T05:55:57;14;;14;;;;;;;
42106;SPS30;27764;50.278;19.032;2022-10-16T05:59:02;15;;15;;;;;;;
42106;SPS30;27764;50.278;19.032;2022-10-16T06:02:08;13;;13;;;;;;;
42106;SPS30;27764;50.278;19.032;2022-10-16T06:05:15;16;;16;;;;;;;
42106;SPS30;27764;50.278;19.032;2022-10-16T06:08:49;12;;12;;;;;;;
42106;SPS30;27764;50.278;19.032;2022-10-16T06:11:53;11;;11;;;;;;;
42106;SPS30;27764;50.278;19.032;2022-10-16T06:14:56;12;;12;;;;;;;
42106;SPS30;27764;50.278;19.032;2022-10-16T06:17:59;12;;12;;;;;;;
42106;SPS30;27764;50.278;19.032;2022-10-16T06:24:18;14;;14;;;;;;;
42106;SPS30;27764;50.278;19.032;2022-10-16T06:27:22;12;;12;;;;;;;
42106;SPS30;27764;50.278;19.032;2022-10-16T06:30:25;11;;11;;;;;;;
42106;SPS30;27764;50.278;19.032;2022-10-16T06:34:04;11;;11;;;;;;;
42106;SPS30;27764;50.278;19.032;2022-10-16T06:37:13;11;;11;;;;;;;
42106;SPS30;27764;50.278;19.032;2022-10-16T06:40:16;10;;10;;;;;;;
42106;SPS30;27764;50.278;19.032;2022-10-16T06:43:19;10;;10;;;;;;;
42106;SPS30;27764;50.278;19.032;2022-10-16T06:46:24;12;;12;;;;;;;
42106;SPS30;27764;50.278;19.032;2022-10-16T06:49:28;10;;10;;;;;;;
42106;SPS30;27764;50.278;19.032;2022-10-16T06:52:31;11;;11;;;;;;;
42106;SPS30;27764;50.278;19.032;2022-10-16T06:55:36;12;;12;;;;;;;
42106;SPS30;27764;50.278;19.032;2022-10-16T06:59:22;13;;13;;;;;;;
42106;SPS30;27764;50.278;19.032;2022-10-16T07:02:26;13;;13;;;;;;;
42106;SPS30;27764;50.278;19.032;2022-10-16T07:05:29;16;;16;;;;;;;
42106;SPS30;27764;50.278;19.032;2022-10-16T07:08:33;10;;10;;;;;;;
42106;SPS30;27764;50.278;19.032;2022-10-16T07:11:38;14;;14;;;;;;;
42106;SPS30;27764;50.278;19.032;2022-10-16T07:14:43;12;;12;;;;;;;
42106;SPS30;27764;50.278;19.032;2022-10-16T07:17:46;12;;12;;;;;;;
42106;SPS30;27764;50.278;19.032;2022-10-16T07:20:50;13;;13;;;;;;;
42106;SPS30;27764;50.278;19.032;2022-10-16T07:24:28;10;;10;;;;;;;
42106;SPS30;27764;50.278;19.032;2022-10-16T07:27:31;10;;10;;;;;;;
42106;SPS30;27764;50.278;19.032;2022-10-16T07:30:35;10;;10;;;;;;;
42106;SPS30;27764;50.278;19.032;2022-10-16T07:33:40;11;;11;;;;;;;
42106;SPS30;27764;50.278;19.032;2022-10-16T07:36:50;10;;10;;;;;;;
42106;SPS30;27764;50.278;19.032;2022-10-16T07:39:53;11;;11;;;;;;;
42106;SPS30;27764;50.278;19.032;2022-10-16T07:42:57;9;;9;;;;;;;
42106;SPS30;27764;50.278;19.032;2022-10-16T07:46:00;11;;11;;;;;;;
42106;SPS30;27764;50.278;19.032;2022-10-16T07:49:34;10;;10;;;;;;;
42106;SPS30;27764;50.278;19.032;2022-10-16T07:52:38;11;;11;;;;;;;
42106;SPS30;27764;50.278;19.032;2022-10-16T07:55:41;11;;11;;;;;;;
42106;SPS30;27764;50.278;19.032;2022-10-16T07:58:45;10;;10;;;;;;;
42106;SPS30;27764;50.278;19.032;2022-10-16T08:01:49;9;;9;;;;;;;
42106;SPS30;27764;50.278;19.032;2022-10-16T08:04:52;11;;11;;;;;;;
42106;SPS30;27764;50.278;19.032;2022-10-16T08:07:56;10;;10;;;;;;;
42106;SPS30;27764;50.278;19.032;2022-10-16T08:10:59;11;;11;;;;;;;
42106;SPS30;27764;50.278;19.032;2022-10-16T08:14:37;10;;10;;;;;;;
42106;SPS30;27764;50.278;19.032;2022-10-16T08:17:41;8;;8;;;;;;;
42106;SPS30;27764;50.278;19.032;2022-10-16T08:20:44;8;;8;;;;;;;
42106;SPS30;27764;50.278;19.032;2022-10-16T08:23:47;9;;9;;;;;;;
42106;SPS30;27764;50.278;19.032;2022-10-16T08:26:55;9;;9;;;;;;;
42106;SPS30;27764;50.278;19.032;2022-10-16T08:29:58;11;;11;;;;;;;
42106;SPS30;27764;50.278;19.032;2022-10-16T08:33:01;9;;9;;;;;;;
42106;SPS30;27764;50.278;19.032;2022-10-16T08:36:06;9;;9;;;;;;;
42106;SPS30;27764;50.278;19.032;2022-10-16T08:39:55;10;;10;;;;;;;
42106;SPS30;27764;50.278;19.032;2022-10-16T08:49:27;10;;10;;;;;;;
42106;SPS30;27764;50.278;19.032;2022-10-16T08:52:32;10;;10;;;;;;;
42106;SPS30;27764;50.278;19.032;2022-10-16T08:55:42;8;;8;;;;;;;
42106;SPS30;27764;50.278;19.032;2022-10-16T08:59:22;11;;11;;;;;;;
42106;SPS30;27764;50.278;19.032;2022-10-16T09:05:43;8;;8;;;;;;;
42106;SPS30;27764;50.278;19.032;2022-10-16T09:22:32;9;;9;;;;;;;
42106;SPS30;27764;50.278;19.032;2022-10-16T09:25:35;8;;8;;;;;;;
42106;SPS30;27764;50.278;19.032;2022-10-16T09:28:41;10;;10;;;;;;;
42106;SPS30;27764;50.278;19.032;2022-10-16T09:31:45;10;;10;;;;;;;
42106;SPS30;27764;50.278;19.032;2022-10-16T09:34:52;10;;10;;;;;;;
42106;SPS30;27764;50.278;19.032;2022-10-16T09:38:44;9;;9;;;;;;;
42106;SPS30;27764;50.278;19.032;2022-10-16T09:41:48;10;;10;;;;;;;
42106;SPS30;27764;50.278;19.032;2022-10-16T09:44:52;11;;11;;;;;;;
42106;SPS30;27764;50.278;19.032;2022-10-16T09:47:57;10;;10;;;;;;;
42106;SPS30;27764;50.278;19.032;2022-10-16T09:51:02;10;;10;;;;;;;
42106;SPS30;27764;50.278;19.032;2022-10-16T09:57:18;9;;9;;;;;;;
42106;SPS30;27764;50.278;19.032;2022-10-16T10:00:54;9;;9;;;;;;;
42106;SPS30;27764;50.278;19.032;2022-10-16T10:03:58;7;;7;;;;;;;
42106;SPS30;27764;50.278;19.032;2022-10-16T10:07:05;7;;7;;;;;;;
42106;SPS30;27764;50.278;19.032;2022-10-16T10:10:19;9;;9;;;;;;;
42106;SPS30;27764;50.278;19.032;2022-10-16T10:13:28;8;;8;;;;;;;
42106;SPS30;27764;50.278;19.032;2022-10-16T10:16:32;7;;7;;;;;;;
42106;SPS30;27764;50.278;19.032;2022-10-16T10:20:35;8;;8;;;;;;;
42106;SPS30;27764;50.278;19.032;2022-10-16T10:23:30;7;;7;;;;;;;
42106;SPS30;27764;50.278;19.032;2022-10-16T10:26:34;9;;9;;;;;;;
42106;SPS30;27764;50.278;19.032;2022-10-16T10:29:46;8;;8;;;;;;;
42106;SPS30;27764;50.278;19.032;2022-10-16T10:57:03;23;;23;;;;;;;
42106;SPS30;27764;50.278;19.032;2022-10-16T11:06:44;9;;9;;;;;;;
42106;SPS30;27764;50.278;19.032;2022-10-16T11:17:12;6;;6;;;;;;;
42106;SPS30;27764;50.278;19.032;2022-10-16T11:20:20;7;;7;;;;;;;
42106;SPS30;27764;50.278;19.032;2022-10-16T11:30:50;8;;8;;;;;;;
42106;SPS30;27764;50.278;19.032;2022-10-16T11:37:40;8;;8;;;;;;;
42106;SPS30;27764;50.278;19.032;2022-10-16T11:40:39;9;;9;;;;;;;
42106;SPS30;27764;50.278;19.032;2022-10-16T11:44:27;7;;7;;;;;;;
42106;SPS30;27764;50.278;19.032;2022-10-16T11:47:40;8;;8;;;;;;;
42106;SPS30;27764;50.278;19.032;2022-10-16T11:50:51;7;;7;;;;;;;
42106;SPS30;27764;50.278;19.032;2022-10-16T11:57:21;9;;9;;;;;;;
42106;SPS30;27764;50.278;19.032;2022-10-16T12:01:10;9;;9;;;;;;;
42106;SPS30;27764;50.278;19.032;2022-10-16T12:07:36;9;;9;;;;;;;
42106;SPS30;27764;50.278;19.032;2022-10-16T12:10:45;8;;8;;;;;;;
42106;SPS30;27764;50.278;19.032;2022-10-16T12:13:50;8;;8;;;;;;;
42106;SPS30;27764;50.278;19.032;2022-10-16T12:16:55;7;;7;;;;;;;
42106;SPS30;27764;50.278;19.032;2022-10-16T12:20:40;8;;8;;;;;;;
42106;SPS30;27764;50.278;19.032;2022-10-16T12:23:53;8;;8;;;;;;;
42106;SPS30;27764;50.278;19.032;2022-10-16T12:26:59;9;;9;;;;;;;
42106;SPS30;27764;50.278;19.032;2022-10-16T12:30:04;8;;8;;;;;;;
42106;SPS30;27764;50.278;19.032;2022-10-16T12:46:40;9;;9;;;;;;;
42106;SPS30;27764;50.278;19.032;2022-10-16T12:49:48;9;;9;;;;;;;
42106;SPS30;27764;50.278;19.032;2022-10-16T12:52:54;9;;9;;;;;;;
42106;SPS30;27764;50.278;19.032;2022-10-16T12:56:19;8;;8;;;;;;;
42106;SPS30;27764;50.278;19.032;2022-10-16T13:03:16;10;;10;;;;;;;
42106;SPS30;27764;50.278;19.032;2022-10-16T13:09:39;10;;10;;;;;;;
42106;SPS30;27764;50.278;19.032;2022-10-16T13:23:40;11;;11;;;;;;;
42106;SPS30;27764;50.278;19.032;2022-10-16T13:30:43;11;;11;;;;;;;
42106;SPS30;27764;50.278;19.032;2022-10-16T13:33:53;11;;11;;;;;;;
42106;SPS30;27764;50.278;19.032;2022-10-16T13:37:01;10;;10;;;;;;;
42106;SPS30;27764;50.278;19.032;2022-10-16T13:44:02;8;;8;;;;;;;
42106;SPS30;27764;50.278;19.032;2022-10-16T13:47:10;11;;11;;;;;;;
42106;SPS30;27764;50.278;19.032;2022-10-16T13:50:21;10;;10;;;;;;;
42106;SPS30;27764;50.278;19.032;2022-10-16T13:53:24;11;;11;;;;;;;
42106;SPS30;27764;50.278;19.032;2022-10-16T13:56:28;9;;9;;;;;;;
42106;SPS30;27764;50.278;19.032;2022-10-16T13:59:34;8;;8;;;;;;;
42106;SPS30;27764;50.278;19.032;2022-10-16T14:03:22;7;;7;;;;;;;
42106;SPS30;27764;50.278;19.032;2022-10-16T14:06:27;15;;10;;;;;;;
42106;SPS30;27764;50.278;19.032;2022-10-16T14:09:30;10;;10;;;;;;;
42106;SPS30;27764;50.278;19.032;2022-10-16T14:12:34;10;;10;;;;;;;
42106;SPS30;27764;50.278;19.032;2022-10-16T14:15:38;9;;9;;;;;;;
42106;SPS30;27764;50.278;19.032;2022-10-16T14:18:41;9;;9;;;;;;;
42106;SPS30;27764;50.278;19.032;2022-10-16T14:21:50;9;;9;;;;;;;
42106;SPS30;27764;50.278;19.032;2022-10-16T14:24:54;10;;10;;;;;;;
42106;SPS30;27764;50.278;19.032;2022-10-16T14:28:39;10;;10;;;;;;;
42106;SPS30;27764;50.278;19.032;2022-10-16T14:31:54;10;;10;;;;;;;
42106;SPS30;27764;50.278;19.032;2022-10-16T14:34:59;10;;10;;;;;;;
42106;SPS30;27764;50.278;19.032;2022-10-16T14:38:02;10;;10;;;;;;;
42106;SPS30;27764;50.278;19.032;2022-10-16T14:41:08;10;;10;;;;;;;
42106;SPS30;27764;50.278;19.032;2022-10-16T14:44:12;10;;10;;;;;;;
42106;SPS30;27764;50.278;19.032;2022-10-16T14:47:17;10;;10;;;;;;;
42106;SPS30;27764;50.278;19.032;2022-10-16T14:51:17;10;;10;;;;;;;
42106;SPS30;27764;50.278;19.032;2022-10-16T14:54:21;9;;9;;;;;;;
42106;SPS30;27764;50.278;19.032;2022-10-16T14:57:26;8;;8;;;;;;;
42106;SPS30;27764;50.278;19.032;2022-10-16T15:00:33;9;;9;;;;;;;
42106;SPS30;27764;50.278;19.032;2022-10-16T15:03:37;10;;10;;;;;;;
42106;SPS30;27764;50.278;19.032;2022-10-16T15:06:42;10;;10;;;;;;;
42106;SPS30;27764;50.278;19.032;2022-10-16T15:09:45;10;;10;;;;;;;
42106;SPS30;27764;50.278;19.032;2022-10-16T15:13:30;11;;11;;;;;;;
42106;SPS30;27764;50.278;19.032;2022-10-16T15:16:33;10;;10;;;;;;;
42106;SPS30;27764;50.278;19.032;2022-10-16T15:19:37;9;;9;;;;;;;
42106;SPS30;27764;50.278;19.032;2022-10-16T15:22:40;8;;8;;;;;;;
42106;SPS30;27764;50.278;19.032;2022-10-16T15:25:44;10;;10;;;;;;;
42106;SPS30;27764;50.278;19.032;2022-10-16T15:28:53;9;;9;;;;;;;
42106;SPS30;27764;50.278;19.032;2022-10-16T15:31:56;7;;7;;;;;;;
42106;SPS30;27764;50.278;19.032;2022-10-16T15:35:38;9;;9;;;;;;;
42106;SPS30;27764;50.278;19.032;2022-10-16T15:38:41;9;;9;;;;;;;
42106;SPS30;27764;50.278;19.032;2022-10-16T15:41:45;10;;10;;;;;;;
42106;SPS30;27764;50.278;19.032;2022-10-16T15:44:55;10;;10;;;;;;;
42106;SPS30;27764;50.278;19.032;2022-10-16T15:47:59;11;;11;;;;;;;
42106;SPS30;27764;50.278;19.032;2022-10-16T15:51:06;11;;11;;;;;;;
42106;SPS30;27764;50.278;19.032;2022-10-16T15:54:10;10;;10;;;;;;;
42106;SPS30;27764;50.278;19.032;2022-10-16T15:57:57;10;;10;;;;;;;
42106;SPS30;27764;50.278;19.032;2022-10-16T16:01:02;9;;9;;;;;;;
42106;SPS30;27764;50.278;19.032;2022-10-16T16:04:12;10;;10;;;;;;;
42106;SPS30;27764;50.278;19.032;2022-10-16T16:07:15;11;;11;;;;;;;
42106;SPS30;27764;50.278;19.032;2022-10-16T16:10:19;10;;10;;;;;;;
42106;SPS30;27764;50.278;19.032;2022-10-16T16:13:26;10;;10;;;;;;;
42106;SPS30;27764;50.278;19.032;2022-10-16T16:16:29;12;;12;;;;;;;
42106;SPS30;27764;50.278;19.032;2022-10-16T16:20:12;11;;11;;;;;;;
42106;SPS30;27764;50.278;19.032;2022-10-16T16:23:16;10;;10;;;;;;;
42106;SPS30;27764;50.278;19.032;2022-10-16T16:26:23;9;;9;;;;;;;
42106;SPS30;27764;50.278;19.032;2022-10-16T16:29:38;10;;10;;;;;;;
42106;SPS30;27764;50.278;19.032;2022-10-16T16:32:42;10;;10;;;;;;;
42106;SPS30;27764;50.278;19.032;2022-10-16T16:35:46;9;;9;;;;;;;
42106;SPS30;27764;50.278;19.032;2022-10-16T16:39:37;11;;11;;;;;;;
42106;SPS30;27764;50.278;19.032;2022-10-16T16:42:40;12;;12;;;;;;;
42106;SPS30;27764;50.278;19.032;2022-10-16T16:45:44;13;;13;;;;;;;
42106;SPS30;27764;50.278;19.032;2022-10-16T16:48:47;13;;13;;;;;;;
42106;SPS30;27764;50.278;19.032;2022-10-16T16:51:54;15;;15;;;;;;;
42106;SPS30;27764;50.278;19.032;2022-10-16T16:54:57;14;;14;;;;;;;
42106;SPS30;27764;50.278;19.032;2022-10-16T16:58:00;13;;13;;;;;;;
42106;SPS30;27764;50.278;19.032;2022-10-16T17:01:08;14;;14;;;;;;;
42106;SPS30;27764;50.278;19.032;2022-10-16T17:04:53;12;;12;;;;;;;
42106;SPS30;27764;50.278;19.032;2022-10-16T17:08:00;12;;12;;;;;;;
42106;SPS30;27764;50.278;19.032;2022-10-16T17:11:03;13;;13;;;;;;;
42106;SPS30;27764;50.278;19.032;2022-10-16T17:14:07;13;;13;;;;;;;
42106;SPS30;27764;50.278;19.032;2022-10-16T17:17:12;12;;12;;;;;;;
42106;SPS30;27764;50.278;19.032;2022-10-16T17:20:15;14;;14;;;;;;;
42106;SPS30;27764;50.278;19.032;2022-10-16T17:23:19;13;;13;;;;;;;
42106;SPS30;27764;50.278;19.032;2022-10-16T17:26:58;15;;15;;;;;;;
42106;SPS30;27764;50.278;19.032;2022-10-16T17:30:02;17;;17;;;;;;;
42106;SPS30;27764;50.278;19.032;2022-10-16T17:33:08;15;;15;;;;;;;
42106;SPS30;27764;50.278;19.032;2022-10-16T17:36:13;17;;16;;;;;;;
42106;SPS30;27764;50.278;19.032;2022-10-16T17:39:17;18;;18;;;;;;;
42106;SPS30;27764;50.278;19.032;2022-10-16T17:42:21;17;;17;;;;;;;
42106;SPS30;27764;50.278;19.032;2022-10-16T17:45:24;16;;16;;;;;;;
42106;SPS30;27764;50.278;19.032;2022-10-16T17:49:09;16;;16;;;;;;;
42106;SPS30;27764;50.278;19.032;2022-10-16T17:52:12;18;;18;;;;;;;
42106;SPS30;27764;50.278;19.032;2022-10-16T17:55:16;20;;20;;;;;;;
42106;SPS30;27764;50.278;19.032;2022-10-16T17:58:19;18;;18;;;;;;;
42106;SPS30;27764;50.278;19.032;2022-10-16T18:01:23;18;;18;;;;;;;
42106;SPS30;27764;50.278;19.032;2022-10-16T18:04:29;18;;18;;;;;;;
42106;SPS30;27764;50.278;19.032;2022-10-16T18:07:32;19;;19;;;;;;;
42106;SPS30;27764;50.278;19.032;2022-10-16T18:10:35;17;;17;;;;;;;
42106;SPS30;27764;50.278;19.032;2022-10-16T18:13:39;19;;19;;;;;;;
42106;SPS30;27764;50.278;19.032;2022-10-16T18:17:19;21;;21;;;;;;;
42106;SPS30;27764;50.278;19.032;2022-10-16T18:20:22;21;;21;;;;;;;
42106;SPS30;27764;50.278;19.032;2022-10-16T18:23:26;21;;21;;;;;;;
42106;SPS30;27764;50.278;19.032;2022-10-16T18:26:30;20;;20;;;;;;;
42106;SPS30;27764;50.278;19.032;2022-10-16T18:29:34;20;;20;;;;;;;
42106;SPS30;27764;50.278;19.032;2022-10-16T18:32:39;21;;21;;;;;;;
42106;SPS30;27764;50.278;19.032;2022-10-16T18:35:43;22;;22;;;;;;;
42106;SPS30;27764;50.278;19.032;2022-10-16T18:39:28;20;;20;;;;;;;
42106;SPS30;27764;50.278;19.032;2022-10-16T18:42:31;21;;21;;;;;;;
42106;SPS30;27764;50.278;19.032;2022-10-16T18:45:35;23;;23;;;;;;;
42106;SPS30;27764;50.278;19.032;2022-10-16T18:48:39;23;;23;;;;;;;
42106;SPS30;27764;50.278;19.032;2022-10-16T18:51:43;22;;22;;;;;;;
42106;SPS30;27764;50.278;19.032;2022-10-16T18:54:48;21;;21;;;;;;;
42106;SPS30;27764;50.278;19.032;2022-10-16T18:57:52;23;;23;;;;;;;
42106;SPS30;27764;50.278;19.032;2022-10-16T19:01:32;22;;22;;;;;;;
42106;SPS30;27764;50.278;19.032;2022-10-16T19:04:37;23;;23;;;;;;;
42106;SPS30;27764;50.278;19.032;2022-10-16T19:07:43;22;;22;;;;;;;
42106;SPS30;27764;50.278;19.032;2022-10-16T19:10:47;21;;21;;;;;;;
42106;SPS30;27764;50.278;19.032;2022-10-16T19:13:51;20;;20;;;;;;;
42106;SPS30;27764;50.278;19.032;2022-10-16T19:16:56;20;;20;;;;;;;
42106;SPS30;27764;50.278;19.032;2022-10-16T19:20:01;20;;20;;;;;;;
42106;SPS30;27764;50.278;19.032;2022-10-16T19:23:04;20;;20;;;;;;;
42106;SPS30;27764;50.278;19.032;2022-10-16T19:26:39;19;;19;;;;;;;
42106;SPS30;27764;50.278;19.032;2022-10-16T19:29:43;19;;19;;;;;;;
42106;SPS30;27764;50.278;19.032;2022-10-16T19:32:46;18;;18;;;;;;;
42106;SPS30;27764;50.278;19.032;2022-10-16T19:35:51;18;;18;;;;;;;
42106;SPS30;27764;50.278;19.032;2022-10-16T19:38:56;18;;18;;;;;;;
42106;SPS30;27764;50.278;19.032;2022-10-16T19:42:01;19;;19;;;;;;;
42106;SPS30;27764;50.278;19.032;2022-10-16T19:45:04;17;;17;;;;;;;
42106;SPS30;27764;50.278;19.032;2022-10-16T19:48:09;18;;18;;;;;;;
42106;SPS30;27764;50.278;19.032;2022-10-16T19:51:53;19;;19;;;;;;;
42106;SPS30;27764;50.278;19.032;2022-10-16T19:54:56;18;;18;;;;;;;
42106;SPS30;27764;50.278;19.032;2022-10-16T19:58:00;19;;19;;;;;;;
42106;SPS30;27764;50.278;19.032;2022-10-16T20:01:03;20;;20;;;;;;;
42106;SPS30;27764;50.278;19.032;2022-10-16T20:04:07;20;;20;;;;;;;
42106;SPS30;27764;50.278;19.032;2022-10-16T20:07:10;21;;21;;;;;;;
42106;SPS30;27764;50.278;19.032;2022-10-16T20:10:14;20;;20;;;;;;;
42106;SPS30;27764;50.278;19.032;2022-10-16T20:13:17;21;;21;;;;;;;
42106;SPS30;27764;50.278;19.032;2022-10-16T20:16:58;21;;21;;;;;;;
42106;SPS30;27764;50.278;19.032;2022-10-16T20:20:03;19;;19;;;;;;;
42106;SPS30;27764;50.278;19.032;2022-10-16T20:23:07;20;;20;;;;;;;
42106;SPS30;27764;50.278;19.032;2022-10-16T20:26:12;19;;19;;;;;;;
42106;SPS30;27764;50.278;19.032;2022-10-16T20:29:15;21;;21;;;;;;;
42106;SPS30;27764;50.278;19.032;2022-10-16T20:32:18;19;;19;;;;;;;
42106;SPS30;27764;50.278;19.032;2022-10-16T20:35:22;19;;19;;;;;;;
42106;SPS30;27764;50.278;19.032;2022-10-16T20:39:10;19;;19;;;;;;;
42106;SPS30;27764;50.278;19.032;2022-10-16T20:42:16;18;;18;;;;;;;
42106;SPS30;27764;50.278;19.032;2022-10-16T20:45:19;18;;18;;;;;;;
42106;SPS30;27764;50.278;19.032;2022-10-16T20:48:25;19;;19;;;;;;;
42106;SPS30;27764;50.278;19.032;2022-10-16T20:51:29;19;;19;;;;;;;
42106;SPS30;27764;50.278;19.032;2022-10-16T20:54:34;17;;17;;;;;;;
42106;SPS30;27764;50.278;19.032;2022-10-16T20:57:37;18;;18;;;;;;;
42106;SPS30;27764;50.278;19.032;2022-10-16T21:01:22;19;;19;;;;;;;
42106;SPS30;27764;50.278;19.032;2022-10-16T21:04:27;19;;19;;;;;;;
42106;SPS30;27764;50.278;19.032;2022-10-16T21:07:30;19;;19;;;;;;;
42106;SPS30;27764;50.278;19.032;2022-10-16T21:10:33;18;;18;;;;;;;
42106;SPS30;27764;50.278;19.032;2022-10-16T21:13:37;17;;17;;;;;;;
42106;SPS30;27764;50.278;19.032;2022-10-16T21:16:41;17;;17;;;;;;;
42106;SPS30;27764;50.278;19.032;2022-10-16T21:19:44;18;;18;;;;;;;
42106;SPS30;27764;50.278;19.032;2022-10-16T21:22:48;18;;18;;;;;;;
42106;SPS30;27764;50.278;19.032;2022-10-16T21:26:25;19;;19;;;;;;;
42106;SPS30;27764;50.278;19.032;2022-10-16T21:29:30;19;;19;;;;;;;
42106;SPS30;27764;50.278;19.032;2022-10-16T21:32:36;17;;17;;;;;;;
42106;SPS30;27764;50.278;19.032;2022-10-16T21:35:40;17;;17;;;;;;;
42106;SPS30;27764;50.278;19.032;2022-10-16T21:38:44;18;;18;;;;;;;
42106;SPS30;27764;50.278;19.032;2022-10-16T21:41:48;17;;17;;;;;;;
42106;SPS30;27764;50.278;19.032;2022-10-16T21:44:52;18;;18;;;;;;;
42106;SPS30;27764;50.278;19.032;2022-10-16T21:47:56;18;;18;;;;;;;
42106;SPS30;27764;50.278;19.032;2022-10-16T21:50:59;19;;19;;;;;;;
42106;SPS30;27764;50.278;19.032;2022-10-16T21:54:46;19;;19;;;;;;;
42106;SPS30;27764;50.278;19.032;2022-10-16T21:57:50;17;;17;;;;;;;
42106;SPS30;27764;50.278;19.032;2022-10-16T22:00:53;16;;16;;;;;;;
42106;SPS30;27764;50.278;19.032;2022-10-16T22:03:57;18;;18;;;;;;;
42106;SPS30;27764;50.278;19.032;2022-10-16T22:07:00;18;;18;;;;;;;
42106;SPS30;27764;50.278;19.032;2022-10-16T22:10:04;19;;19;;;;;;;
42106;SPS30;27764;50.278;19.032;2022-10-16T22:13:08;17;;17;;;;;;;
42106;SPS30;27764;50.278;19.032;2022-10-16T22:16:53;22;;22;;;;;;;
42106;SPS30;27764;50.278;19.032;2022-10-16T22:19:56;18;;18;;;;;;;
42106;SPS30;27764;50.278;19.032;2022-10-16T22:22:59;16;;16;;;;;;;
42106;SPS30;27764;50.278;19.032;2022-10-16T22:26:07;17;;17;;;;;;;
42106;SPS30;27764;50.278;19.032;2022-10-16T22:29:12;14;;14;;;;;;;
42106;SPS30;27764;50.278;19.032;2022-10-16T22:32:17;16;;16;;;;;;;
42106;SPS30;27764;50.278;19.032;2022-10-16T22:35:21;16;;16;;;;;;;
42106;SPS30;27764;50.278;19.032;2022-10-16T22:39:04;15;;15;;;;;;;
42106;SPS30;27764;50.278;19.032;2022-10-16T22:42:08;18;;18;;;;;;;
42106;SPS30;27764;50.278;19.032;2022-10-16T22:45:11;17;;17;;;;;;;
42106;SPS30;27764;50.278;19.032;2022-10-16T22:48:14;16;;16;;;;;;;
42106;SPS30;27764;50.278;19.032;2022-10-16T22:51:18;18;;18;;;;;;;
42106;SPS30;27764;50.278;19.032;2022-10-16T22:54:22;18;;18;;;;;;;
42106;SPS30;27764;50.278;19.032;2022-10-16T22:57:25;17;;17;;;;;;;
42106;SPS30;27764;50.278;19.032;2022-10-16T23:00:29;17;;17;;;;;;;
42106;SPS30;27764;50.278;19.032;2022-10-16T23:04:08;18;;18;;;;;;;
42106;SPS30;27764;50.278;19.032;2022-10-16T23:07:12;19;;19;;;;;;;
42106;SPS30;27764;50.278;19.032;2022-10-16T23:10:15;19;;19;;;;;;;
42106;SPS30;27764;50.278;19.032;2022-10-16T23:13:20;16;;15;;;;;;;
42106;SPS30;27764;50.278;19.032;2022-10-16T23:16:24;17;;17;;;;;;;
42106;SPS30;27764;50.278;19.032;2022-10-16T23:19:27;18;;18;;;;;;;
42106;SPS30;27764;50.278;19.032;2022-10-16T23:22:30;19;;18;;;;;;;
42106;SPS30;27764;50.278;19.032;2022-10-16T23:25:34;17;;17;;;;;;;
42106;SPS30;27764;50.278;19.032;2022-10-16T23:29:11;17;;17;;;;;;;
